sensor_id;sensor_type;location;lat;lon;timestamp;temperature;humidity
25208;DHT22;13153;52.316;21.166;2023-02-01T00:00:20;3.60;99.90
25208;DHT22;13153;52.316;21.166;2023-02-01T00:02:46;3.60;99.90
25208;DHT22;13153;52.316;21.166;2023-02-01T00:05:11;3.60;99.90
25208;DHT22;13153;52.316;21.166;2023-02-01T00:07:37;3.70;99.90
25208;DHT22;13153;52.316;21.166;2023-02-01T00:10:04;3.70;99.90
25208;DHT22;13153;52.316;21.166;2023-02-01T00:12:31;3.70;99.90
25208;DHT22;13153;52.316;21.166;2023-02-01T00:14:57;3.70;99.90
25208;DHT22;13153;52.316;21.166;2023-02-01T00:17:23;3.70;99.90
25208;DHT22;13153;52.316;21.166;2023-02-01T00:19:50;3.80;99.90
25208;DHT22;13153;52.316;21.166;2023-02-01T00:22:16;3.80;99.90
25208;DHT22;13153;52.316;21.166;2023-02-01T00:24:42;3.80;99.90
25208;DHT22;13153;52.316;21.166;2023-02-01T00:27:07;3.80;99.90
25208;DHT22;13153;52.316;21.166;2023-02-01T00:29:33;3.90;99.90
25208;DHT22;13153;52.316;21.166;2023-02-01T00:31:59;3.80;99.90
25208;DHT22;13153;52.316;21.166;2023-02-01T00:34:26;3.90;99.90
25208;DHT22;13153;52.316;21.166;2023-02-01T00:36:51;3.90;99.90
25208;DHT22;13153;52.316;21.166;2023-02-01T00:39:17;3.90;99.90
25208;DHT22;13153;52.316;21.166;2023-02-01T00:41:43;3.90;99.90
25208;DHT22;13153;52.316;21.166;2023-02-01T00:44:09;3.90;99.90
25208;DHT22;13153;52.316;21.166;2023-02-01T00:46:35;3.90;99.90
25208;DHT22;13153;52.316;21.166;2023-02-01T00:49:01;3.90;99.90
25208;DHT22;13153;52.316;21.166;2023-02-01T00:51:28;3.90;99.90
25208;DHT22;13153;52.316;21.166;2023-02-01T00:53:55;3.90;99.90
25208;DHT22;13153;52.316;21.166;2023-02-01T00:56:21;3.90;99.90
25208;DHT22;13153;52.316;21.166;2023-02-01T00:58:47;3.90;99.90
25208;DHT22;13153;52.316;21.166;2023-02-01T01:01:17;3.90;99.90
25208;DHT22;13153;52.316;21.166;2023-02-01T01:03:53;4.00;99.90
25208;DHT22;13153;52.316;21.166;2023-02-01T01:06:26;3.90;99.90
25208;DHT22;13153;52.316;21.166;2023-02-01T01:08:55;4.00;99.90
25208;DHT22;13153;52.316;21.166;2023-02-01T01:11:24;4.00;99.90
25208;DHT22;13153;52.316;21.166;2023-02-01T01:13:53;3.90;99.90
25208;DHT22;13153;52.316;21.166;2023-02-01T01:16:22;4.00;99.90
25208;DHT22;13153;52.316;21.166;2023-02-01T01:18:49;3.90;99.90
25208;DHT22;13153;52.316;21.166;2023-02-01T01:21:16;3.90;99.90
25208;DHT22;13153;52.316;21.166;2023-02-01T01:23:44;3.90;99.90
25208;DHT22;13153;52.316;21.166;2023-02-01T01:26:23;3.90;99.90
25208;DHT22;13153;52.316;21.166;2023-02-01T01:28:52;3.90;99.90
25208;DHT22;13153;52.316;21.166;2023-02-01T01:31:20;3.90;99.90
25208;DHT22;13153;52.316;21.166;2023-02-01T01:33:51;3.90;99.90
25208;DHT22;13153;52.316;21.166;2023-02-01T01:36:18;3.90;99.90
25208;DHT22;13153;52.316;21.166;2023-02-01T01:38:45;3.90;99.90
25208;DHT22;13153;52.316;21.166;2023-02-01T01:41:30;3.80;99.90
25208;DHT22;13153;52.316;21.166;2023-02-01T01:43:59;3.80;99.90
25208;DHT22;13153;52.316;21.166;2023-02-01T01:46:32;3.90;99.90
25208;DHT22;13153;52.316;21.166;2023-02-01T01:49:19;3.80;99.90
25208;DHT22;13153;52.316;21.166;2023-02-01T01:51:55;3.80;99.90
25208;DHT22;13153;52.316;21.166;2023-02-01T01:54:31;3.80;99.90
25208;DHT22;13153;52.316;21.166;2023-02-01T01:57:06;3.80;99.90
25208;DHT22;13153;52.316;21.166;2023-02-01T01:59:38;3.80;99.90
25208;DHT22;13153;52.316;21.166;2023-02-01T02:02:07;3.80;99.90
25208;DHT22;13153;52.316;21.166;2023-02-01T02:04:34;3.80;99.90
25208;DHT22;13153;52.316;21.166;2023-02-01T02:07:08;3.70;99.90
25208;DHT22;13153;52.316;21.166;2023-02-01T02:09:38;3.80;99.90
25208;DHT22;13153;52.316;21.166;2023-02-01T02:12:04;3.70;99.90
25208;DHT22;13153;52.316;21.166;2023-02-01T02:14:30;3.80;99.90
25208;DHT22;13153;52.316;21.166;2023-02-01T02:17:16;3.60;99.90
25208;DHT22;13153;52.316;21.166;2023-02-01T02:35:40;3.70;99.90
25208;DHT22;13153;52.316;21.166;2023-02-01T02:41:01;3.70;99.90
25208;DHT22;13153;52.316;21.166;2023-02-01T02:43:46;3.70;99.90
25208;DHT22;13153;52.316;21.166;2023-02-01T02:47:00;3.70;99.90
25208;DHT22;13153;52.316;21.166;2023-02-01T02:49:52;3.70;99.90
25208;DHT22;13153;52.316;21.166;2023-02-01T02:52:49;3.70;99.90
25208;DHT22;13153;52.316;21.166;2023-02-01T02:55:41;3.70;99.90
25208;DHT22;13153;52.316;21.166;2023-02-01T02:58:10;3.70;99.90
25208;DHT22;13153;52.316;21.166;2023-02-01T03:00:56;3.70;99.90
25208;DHT22;13153;52.316;21.166;2023-02-01T03:03:41;3.70;99.90
25208;DHT22;13153;52.316;21.166;2023-02-01T03:06:34;3.70;99.90
25208;DHT22;13153;52.316;21.166;2023-02-01T03:09:02;3.70;99.90
25208;DHT22;13153;52.316;21.166;2023-02-01T03:11:35;3.80;99.90
25208;DHT22;13153;52.316;21.166;2023-02-01T03:14:21;3.80;99.90
25208;DHT22;13153;52.316;21.166;2023-02-01T03:16:57;3.80;99.90
25208;DHT22;13153;52.316;21.166;2023-02-01T03:19:39;3.70;99.90
25208;DHT22;13153;52.316;21.166;2023-02-01T03:22:15;3.80;99.90
25208;DHT22;13153;52.316;21.166;2023-02-01T03:24:49;3.80;99.90
25208;DHT22;13153;52.316;21.166;2023-02-01T03:27:41;3.90;99.90
25208;DHT22;13153;52.316;21.166;2023-02-01T03:30:31;3.90;99.90
25208;DHT22;13153;52.316;21.166;2023-02-01T03:33:03;3.90;99.90
25208;DHT22;13153;52.316;21.166;2023-02-01T03:46:59;3.80;99.90
25208;DHT22;13153;52.316;21.166;2023-02-01T03:49:35;3.70;99.90
25208;DHT22;13153;52.316;21.166;2023-02-01T03:52:08;3.70;99.90
25208;DHT22;13153;52.316;21.166;2023-02-01T03:54:41;3.70;99.90
25208;DHT22;13153;52.316;21.166;2023-02-01T03:57:12;3.70;99.90
25208;DHT22;13153;52.316;21.166;2023-02-01T03:59:44;3.70;99.90
25208;DHT22;13153;52.316;21.166;2023-02-01T04:02:11;3.60;99.90
25208;DHT22;13153;52.316;21.166;2023-02-01T04:04:37;3.60;99.90
25208;DHT22;13153;52.316;21.166;2023-02-01T04:07:03;3.60;99.90
25208;DHT22;13153;52.316;21.166;2023-02-01T04:09:29;3.60;99.90
25208;DHT22;13153;52.316;21.166;2023-02-01T04:11:55;3.70;99.90
25208;DHT22;13153;52.316;21.166;2023-02-01T04:14:21;3.60;99.90
25208;DHT22;13153;52.316;21.166;2023-02-01T04:16:46;3.60;99.90
25208;DHT22;13153;52.316;21.166;2023-02-01T04:19:12;3.70;99.90
25208;DHT22;13153;52.316;21.166;2023-02-01T04:21:38;3.70;99.90
25208;DHT22;13153;52.316;21.166;2023-02-01T04:24:04;3.70;99.90
25208;DHT22;13153;52.316;21.166;2023-02-01T04:26:30;3.60;99.90
25208;DHT22;13153;52.316;21.166;2023-02-01T04:28:56;3.70;99.90
25208;DHT22;13153;52.316;21.166;2023-02-01T04:31:22;3.70;99.90
25208;DHT22;13153;52.316;21.166;2023-02-01T04:33:52;3.70;99.90
25208;DHT22;13153;52.316;21.166;2023-02-01T04:36:19;3.70;99.90
25208;DHT22;13153;52.316;21.166;2023-02-01T04:38:51;3.80;99.90
25208;DHT22;13153;52.316;21.166;2023-02-01T04:41:19;3.70;99.90
25208;DHT22;13153;52.316;21.166;2023-02-01T04:43:46;3.70;99.90
25208;DHT22;13153;52.316;21.166;2023-02-01T04:46:12;3.70;99.90
25208;DHT22;13153;52.316;21.166;2023-02-01T04:48:38;3.70;99.90
25208;DHT22;13153;52.316;21.166;2023-02-01T04:51:04;3.70;99.90
25208;DHT22;13153;52.316;21.166;2023-02-01T04:53:30;3.70;99.90
25208;DHT22;13153;52.316;21.166;2023-02-01T04:55:56;3.70;99.90
25208;DHT22;13153;52.316;21.166;2023-02-01T04:58:22;3.80;99.90
25208;DHT22;13153;52.316;21.166;2023-02-01T05:00:47;3.80;99.90
25208;DHT22;13153;52.316;21.166;2023-02-01T05:03:13;3.80;99.90
25208;DHT22;13153;52.316;21.166;2023-02-01T05:05:39;3.80;99.90
25208;DHT22;13153;52.316;21.166;2023-02-01T05:08:05;3.80;99.90
25208;DHT22;13153;52.316;21.166;2023-02-01T05:10:31;3.80;99.90
25208;DHT22;13153;52.316;21.166;2023-02-01T05:12:56;3.90;99.90
25208;DHT22;13153;52.316;21.166;2023-02-01T05:15:41;3.80;99.90
25208;DHT22;13153;52.316;21.166;2023-02-01T05:18:07;3.80;99.90
25208;DHT22;13153;52.316;21.166;2023-02-01T05:20:32;3.80;99.90
25208;DHT22;13153;52.316;21.166;2023-02-01T05:22:58;3.90;99.90
25208;DHT22;13153;52.316;21.166;2023-02-01T05:25:24;3.80;99.90
25208;DHT22;13153;52.316;21.166;2023-02-01T05:27:50;3.80;99.90
25208;DHT22;13153;52.316;21.166;2023-02-01T05:30:16;3.80;99.90
25208;DHT22;13153;52.316;21.166;2023-02-01T05:32:42;3.90;99.90
25208;DHT22;13153;52.316;21.166;2023-02-01T05:35:08;3.90;99.90
25208;DHT22;13153;52.316;21.166;2023-02-01T05:37:34;3.90;99.90
25208;DHT22;13153;52.316;21.166;2023-02-01T05:40:00;3.90;99.90
25208;DHT22;13153;52.316;21.166;2023-02-01T05:42:25;3.90;99.90
25208;DHT22;13153;52.316;21.166;2023-02-01T05:44:51;3.90;99.90
25208;DHT22;13153;52.316;21.166;2023-02-01T05:47:17;3.90;99.90
25208;DHT22;13153;52.316;21.166;2023-02-01T05:49:43;3.90;99.90
25208;DHT22;13153;52.316;21.166;2023-02-01T05:52:08;3.90;99.90
25208;DHT22;13153;52.316;21.166;2023-02-01T05:54:34;3.90;99.90
25208;DHT22;13153;52.316;21.166;2023-02-01T05:57:00;3.90;99.90
25208;DHT22;13153;52.316;21.166;2023-02-01T05:59:26;3.90;99.90
25208;DHT22;13153;52.316;21.166;2023-02-01T06:01:51;3.90;99.90
25208;DHT22;13153;52.316;21.166;2023-02-01T06:04:17;3.90;99.90
25208;DHT22;13153;52.316;21.166;2023-02-01T06:06:43;3.90;99.90
25208;DHT22;13153;52.316;21.166;2023-02-01T06:09:09;3.90;99.90
25208;DHT22;13153;52.316;21.166;2023-02-01T06:11:35;3.90;99.90
25208;DHT22;13153;52.316;21.166;2023-02-01T06:14:00;3.90;99.90
25208;DHT22;13153;52.316;21.166;2023-02-01T06:16:26;3.90;99.90
25208;DHT22;13153;52.316;21.166;2023-02-01T06:18:53;3.90;99.90
25208;DHT22;13153;52.316;21.166;2023-02-01T06:21:19;4.00;99.90
25208;DHT22;13153;52.316;21.166;2023-02-01T06:23:52;4.00;99.90
25208;DHT22;13153;52.316;21.166;2023-02-01T06:26:19;4.00;99.90
25208;DHT22;13153;52.316;21.166;2023-02-01T06:28:45;4.00;99.90
25208;DHT22;13153;52.316;21.166;2023-02-01T06:31:11;4.00;99.90
25208;DHT22;13153;52.316;21.166;2023-02-01T06:33:38;4.00;99.90
25208;DHT22;13153;52.316;21.166;2023-02-01T06:36:06;4.00;99.90
25208;DHT22;13153;52.316;21.166;2023-02-01T06:38:33;4.00;99.90
25208;DHT22;13153;52.316;21.166;2023-02-01T06:41:00;4.00;99.90
25208;DHT22;13153;52.316;21.166;2023-02-01T06:43:28;4.00;99.90
25208;DHT22;13153;52.316;21.166;2023-02-01T06:46:05;4.10;99.90
25208;DHT22;13153;52.316;21.166;2023-02-01T06:48:35;4.10;99.90
25208;DHT22;13153;52.316;21.166;2023-02-01T06:51:01;4.20;99.90
25208;DHT22;13153;52.316;21.166;2023-02-01T06:53:27;4.20;99.90
25208;DHT22;13153;52.316;21.166;2023-02-01T06:55:54;4.10;99.90
25208;DHT22;13153;52.316;21.166;2023-02-01T06:58:21;4.10;99.90
25208;DHT22;13153;52.316;21.166;2023-02-01T07:00:48;4.10;99.90
25208;DHT22;13153;52.316;21.166;2023-02-01T07:03:14;4.10;99.90
25208;DHT22;13153;52.316;21.166;2023-02-01T07:05:39;4.10;99.90
25208;DHT22;13153;52.316;21.166;2023-02-01T07:08:05;4.10;99.90
25208;DHT22;13153;52.316;21.166;2023-02-01T07:10:31;4.10;99.90
25208;DHT22;13153;52.316;21.166;2023-02-01T07:12:57;4.10;99.90
25208;DHT22;13153;52.316;21.166;2023-02-01T07:15:23;4.10;99.90
25208;DHT22;13153;52.316;21.166;2023-02-01T07:17:49;4.10;99.90
25208;DHT22;13153;52.316;21.166;2023-02-01T07:20:16;4.10;99.90
25208;DHT22;13153;52.316;21.166;2023-02-01T07:22:42;4.00;99.90
25208;DHT22;13153;52.316;21.166;2023-02-01T07:25:07;4.00;99.90
25208;DHT22;13153;52.316;21.166;2023-02-01T07:27:35;4.10;99.90
25208;DHT22;13153;52.316;21.166;2023-02-01T07:30:01;4.10;99.90
25208;DHT22;13153;52.316;21.166;2023-02-01T07:32:28;4.10;99.90
25208;DHT22;13153;52.316;21.166;2023-02-01T07:34:54;4.10;99.90
25208;DHT22;13153;52.316;21.166;2023-02-01T07:37:20;4.10;99.90
25208;DHT22;13153;52.316;21.166;2023-02-01T07:39:46;4.10;99.90
25208;DHT22;13153;52.316;21.166;2023-02-01T07:42:11;4.10;99.90
25208;DHT22;13153;52.316;21.166;2023-02-01T07:44:37;4.10;99.90
25208;DHT22;13153;52.316;21.166;2023-02-01T07:47:03;4.20;99.90
25208;DHT22;13153;52.316;21.166;2023-02-01T07:49:29;4.20;99.90
25208;DHT22;13153;52.316;21.166;2023-02-01T07:51:55;4.20;99.90
25208;DHT22;13153;52.316;21.166;2023-02-01T07:54:21;4.10;99.90
25208;DHT22;13153;52.316;21.166;2023-02-01T07:56:47;4.20;99.90
25208;DHT22;13153;52.316;21.166;2023-02-01T07:59:12;4.20;99.90
25208;DHT22;13153;52.316;21.166;2023-02-01T08:01:38;4.20;99.90
25208;DHT22;13153;52.316;21.166;2023-02-01T08:04:04;4.20;99.90
25208;DHT22;13153;52.316;21.166;2023-02-01T08:06:32;4.20;99.90
25208;DHT22;13153;52.316;21.166;2023-02-01T08:09:02;4.20;99.90
25208;DHT22;13153;52.316;21.166;2023-02-01T08:11:30;4.20;99.90
25208;DHT22;13153;52.316;21.166;2023-02-01T08:13:57;4.20;99.90
25208;DHT22;13153;52.316;21.166;2023-02-01T08:16:24;4.30;99.90
25208;DHT22;13153;52.316;21.166;2023-02-01T08:18:51;4.30;99.90
25208;DHT22;13153;52.316;21.166;2023-02-01T08:21:27;4.30;99.90
25208;DHT22;13153;52.316;21.166;2023-02-01T08:24:06;4.30;99.90
25208;DHT22;13153;52.316;21.166;2023-02-01T08:26:33;4.30;99.90
25208;DHT22;13153;52.316;21.166;2023-02-01T08:29:01;4.30;99.90
25208;DHT22;13153;52.316;21.166;2023-02-01T08:31:29;4.40;99.90
25208;DHT22;13153;52.316;21.166;2023-02-01T08:33:59;4.50;99.90
25208;DHT22;13153;52.316;21.166;2023-02-01T08:36:28;4.50;99.90
25208;DHT22;13153;52.316;21.166;2023-02-01T08:38:56;4.50;99.90
25208;DHT22;13153;52.316;21.166;2023-02-01T08:41:24;4.60;99.90
25208;DHT22;13153;52.316;21.166;2023-02-01T08:43:55;4.50;99.90
25208;DHT22;13153;52.316;21.166;2023-02-01T08:46:21;4.60;99.90
25208;DHT22;13153;52.316;21.166;2023-02-01T08:48:48;4.60;99.90
25208;DHT22;13153;52.316;21.166;2023-02-01T08:51:17;4.60;99.90
25208;DHT22;13153;52.316;21.166;2023-02-01T08:53:45;4.60;99.90
25208;DHT22;13153;52.316;21.166;2023-02-01T08:56:12;4.60;99.90
25208;DHT22;13153;52.316;21.166;2023-02-01T08:58:39;4.50;99.90
25208;DHT22;13153;52.316;21.166;2023-02-01T09:01:10;4.50;99.90
25208;DHT22;13153;52.316;21.166;2023-02-01T09:03:39;4.50;99.90
25208;DHT22;13153;52.316;21.166;2023-02-01T09:06:10;4.50;99.90
25208;DHT22;13153;52.316;21.166;2023-02-01T09:08:39;4.50;99.90
25208;DHT22;13153;52.316;21.166;2023-02-01T09:11:07;4.50;99.90
25208;DHT22;13153;52.316;21.166;2023-02-01T09:13:37;4.50;99.90
25208;DHT22;13153;52.316;21.166;2023-02-01T09:16:03;4.50;99.90
25208;DHT22;13153;52.316;21.166;2023-02-01T09:18:29;4.50;99.90
25208;DHT22;13153;52.316;21.166;2023-02-01T09:20:55;4.50;99.90
25208;DHT22;13153;52.316;21.166;2023-02-01T09:23:21;4.40;99.90
25208;DHT22;13153;52.316;21.166;2023-02-01T09:25:47;4.40;99.90
25208;DHT22;13153;52.316;21.166;2023-02-01T09:28:17;4.40;99.90
25208;DHT22;13153;52.316;21.166;2023-02-01T09:30:44;4.40;99.90
25208;DHT22;13153;52.316;21.166;2023-02-01T09:33:09;4.40;99.90
25208;DHT22;13153;52.316;21.166;2023-02-01T09:35:35;4.50;99.90
25208;DHT22;13153;52.316;21.166;2023-02-01T09:38:01;4.60;99.90
25208;DHT22;13153;52.316;21.166;2023-02-01T09:40:27;4.70;99.90
25208;DHT22;13153;52.316;21.166;2023-02-01T09:48:46;4.80;99.90
25208;DHT22;13153;52.316;21.166;2023-02-01T09:51:16;4.80;99.90
25208;DHT22;13153;52.316;21.166;2023-02-01T09:59:46;4.90;99.90
25208;DHT22;13153;52.316;21.166;2023-02-01T10:02:21;4.90;99.90
25208;DHT22;13153;52.316;21.166;2023-02-01T10:04:57;4.90;99.90
25208;DHT22;13153;52.316;21.166;2023-02-01T10:07:39;4.90;99.90
25208;DHT22;13153;52.316;21.166;2023-02-01T10:10:47;4.80;99.90
25208;DHT22;13153;52.316;21.166;2023-02-01T10:13:34;4.80;99.90
25208;DHT22;13153;52.316;21.166;2023-02-01T10:27:49;4.80;99.90
25208;DHT22;13153;52.316;21.166;2023-02-01T10:30:25;4.80;99.90
25208;DHT22;13153;52.316;21.166;2023-02-01T10:33:00;4.80;99.90
25208;DHT22;13153;52.316;21.166;2023-02-01T10:35:39;4.80;99.90
25208;DHT22;13153;52.316;21.166;2023-02-01T10:38:17;4.80;99.90
25208;DHT22;13153;52.316;21.166;2023-02-01T10:40:52;4.80;99.90
25208;DHT22;13153;52.316;21.166;2023-02-01T10:43:20;4.80;99.90
25208;DHT22;13153;52.316;21.166;2023-02-01T10:45:47;4.80;99.90
25208;DHT22;13153;52.316;21.166;2023-02-01T10:48:13;4.90;99.90
25208;DHT22;13153;52.316;21.166;2023-02-01T10:50:54;4.90;99.90
25208;DHT22;13153;52.316;21.166;2023-02-01T10:53:40;4.90;99.90
25208;DHT22;13153;52.316;21.166;2023-02-01T10:56:13;5.00;99.90
25208;DHT22;13153;52.316;21.166;2023-02-01T10:58:46;5.00;99.90
25208;DHT22;13153;52.316;21.166;2023-02-01T11:01:28;5.00;99.90
25208;DHT22;13153;52.316;21.166;2023-02-01T11:04:16;5.00;99.90
25208;DHT22;13153;52.316;21.166;2023-02-01T11:06:53;5.00;99.90
25208;DHT22;13153;52.316;21.166;2023-02-01T11:09:38;5.10;99.90
25208;DHT22;13153;52.316;21.166;2023-02-01T11:12:10;5.00;99.90
25208;DHT22;13153;52.316;21.166;2023-02-01T11:14:58;5.10;99.90
25208;DHT22;13153;52.316;21.166;2023-02-01T11:17:46;5.10;99.90
25208;DHT22;13153;52.316;21.166;2023-02-01T11:20:36;5.10;99.90
25208;DHT22;13153;52.316;21.166;2023-02-01T11:23:10;5.10;99.90
25208;DHT22;13153;52.316;21.166;2023-02-01T11:25:54;5.20;99.90
25208;DHT22;13153;52.316;21.166;2023-02-01T11:28:29;5.10;99.90
25208;DHT22;13153;52.316;21.166;2023-02-01T11:31:09;5.10;99.90
25208;DHT22;13153;52.316;21.166;2023-02-01T11:33:42;5.10;99.90
25208;DHT22;13153;52.316;21.166;2023-02-01T11:36:20;5.10;99.90
25208;DHT22;13153;52.316;21.166;2023-02-01T11:39:17;5.20;99.90
25208;DHT22;13153;52.316;21.166;2023-02-01T11:42:01;5.20;99.90
25208;DHT22;13153;52.316;21.166;2023-02-01T11:44:38;5.20;99.90
25208;DHT22;13153;52.316;21.166;2023-02-01T11:47:28;5.20;99.90
25208;DHT22;13153;52.316;21.166;2023-02-01T11:50:02;5.20;99.90
25208;DHT22;13153;52.316;21.166;2023-02-01T11:55:52;5.20;99.90
25208;DHT22;13153;52.316;21.166;2023-02-01T12:01:36;5.20;99.90
25208;DHT22;13153;52.316;21.166;2023-02-01T12:10:22;5.20;99.90
25208;DHT22;13153;52.316;21.166;2023-02-01T12:18:41;5.30;99.90
25208;DHT22;13153;52.316;21.166;2023-02-01T12:39:10;5.20;99.90
25208;DHT22;13153;52.316;21.166;2023-02-01T12:41:47;5.30;99.90
25208;DHT22;13153;52.316;21.166;2023-02-01T12:50:31;5.40;99.90
25208;DHT22;13153;52.316;21.166;2023-02-01T12:53:27;5.50;99.90
25208;DHT22;13153;52.316;21.166;2023-02-01T12:56:20;5.60;99.90
25208;DHT22;13153;52.316;21.166;2023-02-01T12:58:55;5.50;99.90
25208;DHT22;13153;52.316;21.166;2023-02-01T13:02:19;5.60;99.90
25208;DHT22;13153;52.316;21.166;2023-02-01T13:08:11;5.70;99.90
25208;DHT22;13153;52.316;21.166;2023-02-01T13:11:00;5.70;99.90
25208;DHT22;13153;52.316;21.166;2023-02-01T13:16:42;5.70;99.90
25208;DHT22;13153;52.316;21.166;2023-02-01T13:22:47;5.80;99.90
25208;DHT22;13153;52.316;21.166;2023-02-01T13:25:40;5.80;99.90
25208;DHT22;13153;52.316;21.166;2023-02-01T13:42:23;5.70;99.90
25208;DHT22;13153;52.316;21.166;2023-02-01T13:45:04;5.60;99.90
25208;DHT22;13153;52.316;21.166;2023-02-01T13:47:44;5.60;99.90
25208;DHT22;13153;52.316;21.166;2023-02-01T13:50:22;5.60;99.90
25208;DHT22;13153;52.316;21.166;2023-02-01T13:52:57;5.60;99.90
25208;DHT22;13153;52.316;21.166;2023-02-01T13:58:05;5.50;99.90
25208;DHT22;13153;52.316;21.166;2023-02-01T14:00:44;5.50;99.90
25208;DHT22;13153;52.316;21.166;2023-02-01T14:03:15;5.50;99.90
25208;DHT22;13153;52.316;21.166;2023-02-01T14:08:15;5.50;99.90
25208;DHT22;13153;52.316;21.166;2023-02-01T14:10:54;5.50;99.90
25208;DHT22;13153;52.316;21.166;2023-02-01T14:13:39;5.50;99.90
25208;DHT22;13153;52.316;21.166;2023-02-01T14:23:58;5.50;99.90
25208;DHT22;13153;52.316;21.166;2023-02-01T14:26:44;5.40;99.90
25208;DHT22;13153;52.316;21.166;2023-02-01T14:39:59;5.40;99.90
25208;DHT22;13153;52.316;21.166;2023-02-01T14:42:46;5.40;99.90
25208;DHT22;13153;52.316;21.166;2023-02-01T14:48:37;5.40;99.90
25208;DHT22;13153;52.316;21.166;2023-02-01T14:50:51;5.40;99.90
25208;DHT22;13153;52.316;21.166;2023-02-01T14:53:21;5.30;99.90
25208;DHT22;13153;52.316;21.166;2023-02-01T14:58:32;5.30;99.90
25208;DHT22;13153;52.316;21.166;2023-02-01T15:04:14;5.30;99.90
25208;DHT22;13153;52.316;21.166;2023-02-01T15:09:45;5.30;99.90
25208;DHT22;13153;52.316;21.166;2023-02-01T15:12:17;5.30;99.90
25208;DHT22;13153;52.316;21.166;2023-02-01T15:17:59;5.20;99.90
25208;DHT22;13153;52.316;21.166;2023-02-01T15:20:26;5.20;99.90
25208;DHT22;13153;52.316;21.166;2023-02-01T15:23:04;5.30;99.90
25208;DHT22;13153;52.316;21.166;2023-02-01T15:25:38;5.20;99.90
25208;DHT22;13153;52.316;21.166;2023-02-01T15:28:05;5.10;99.90
25208;DHT22;13153;52.316;21.166;2023-02-01T15:30:35;5.10;99.90
25208;DHT22;13153;52.316;21.166;2023-02-01T15:35:40;5.00;99.90
25208;DHT22;13153;52.316;21.166;2023-02-01T15:44:17;5.00;99.90
25208;DHT22;13153;52.316;21.166;2023-02-01T15:46:22;5.00;99.90
25208;DHT22;13153;52.316;21.166;2023-02-01T15:48:55;5.00;99.90
25208;DHT22;13153;52.316;21.166;2023-02-01T15:51:27;5.00;99.90
25208;DHT22;13153;52.316;21.166;2023-02-01T15:54:01;4.90;99.90
25208;DHT22;13153;52.316;21.166;2023-02-01T15:56:34;5.00;99.90
25208;DHT22;13153;52.316;21.166;2023-02-01T15:59:06;4.90;99.90
25208;DHT22;13153;52.316;21.166;2023-02-01T16:01:40;5.00;99.90
25208;DHT22;13153;52.316;21.166;2023-02-01T16:04:29;5.00;99.90
25208;DHT22;13153;52.316;21.166;2023-02-01T16:06:58;5.00;99.90
25208;DHT22;13153;52.316;21.166;2023-02-01T16:09:48;5.00;99.90
25208;DHT22;13153;52.316;21.166;2023-02-01T16:12:26;5.00;99.90
25208;DHT22;13153;52.316;21.166;2023-02-01T16:14:57;5.00;99.90
25208;DHT22;13153;52.316;21.166;2023-02-01T16:17:23;5.00;99.90
25208;DHT22;13153;52.316;21.166;2023-02-01T16:19:50;5.00;99.90
25208;DHT22;13153;52.316;21.166;2023-02-01T16:22:15;5.00;99.90
25208;DHT22;13153;52.316;21.166;2023-02-01T16:24:41;5.10;99.90
25208;DHT22;13153;52.316;21.166;2023-02-01T16:27:07;5.00;99.90
25208;DHT22;13153;52.316;21.166;2023-02-01T16:29:33;5.00;99.90
25208;DHT22;13153;52.316;21.166;2023-02-01T16:31:59;5.10;99.90
25208;DHT22;13153;52.316;21.166;2023-02-01T16:34:26;5.00;99.90
25208;DHT22;13153;52.316;21.166;2023-02-01T16:36:52;5.00;99.90
25208;DHT22;13153;52.316;21.166;2023-02-01T16:39:19;5.00;99.90
25208;DHT22;13153;52.316;21.166;2023-02-01T16:41:46;5.00;99.90
25208;DHT22;13153;52.316;21.166;2023-02-01T16:44:11;5.00;99.90
25208;DHT22;13153;52.316;21.166;2023-02-01T16:46:42;5.00;99.90
25208;DHT22;13153;52.316;21.166;2023-02-01T16:49:23;5.00;99.90
25208;DHT22;13153;52.316;21.166;2023-02-01T16:51:51;5.00;99.90
25208;DHT22;13153;52.316;21.166;2023-02-01T16:54:21;5.00;99.90
25208;DHT22;13153;52.316;21.166;2023-02-01T16:56:47;4.90;99.90
25208;DHT22;13153;52.316;21.166;2023-02-01T16:59:13;5.00;99.90
25208;DHT22;13153;52.316;21.166;2023-02-01T17:01:40;5.00;99.90
25208;DHT22;13153;52.316;21.166;2023-02-01T17:04:09;4.90;99.90
25208;DHT22;13153;52.316;21.166;2023-02-01T17:06:36;4.90;99.90
25208;DHT22;13153;52.316;21.166;2023-02-01T17:09:04;4.90;99.90
25208;DHT22;13153;52.316;21.166;2023-02-01T17:11:30;4.90;99.90
25208;DHT22;13153;52.316;21.166;2023-02-01T17:14:01;4.90;99.90
25208;DHT22;13153;52.316;21.166;2023-02-01T17:16:39;4.80;99.90
25208;DHT22;13153;52.316;21.166;2023-02-01T17:19:12;4.80;99.90
25208;DHT22;13153;52.316;21.166;2023-02-01T17:21:50;4.80;99.90
25208;DHT22;13153;52.316;21.166;2023-02-01T17:24:22;4.70;99.90
25208;DHT22;13153;52.316;21.166;2023-02-01T17:26:50;4.70;99.90
25208;DHT22;13153;52.316;21.166;2023-02-01T17:29:17;4.70;99.90
25208;DHT22;13153;52.316;21.166;2023-02-01T17:31:45;4.70;99.90
25208;DHT22;13153;52.316;21.166;2023-02-01T17:34:15;4.70;99.90
25208;DHT22;13153;52.316;21.166;2023-02-01T17:36:42;4.60;99.90
25208;DHT22;13153;52.316;21.166;2023-02-01T17:39:09;4.70;99.90
25208;DHT22;13153;52.316;21.166;2023-02-01T17:41:36;4.70;99.90
25208;DHT22;13153;52.316;21.166;2023-02-01T17:44:03;4.60;99.90
25208;DHT22;13153;52.316;21.166;2023-02-01T17:46:30;4.60;99.90
25208;DHT22;13153;52.316;21.166;2023-02-01T17:48:56;4.60;99.90
25208;DHT22;13153;52.316;21.166;2023-02-01T17:51:26;4.60;99.90
25208;DHT22;13153;52.316;21.166;2023-02-01T17:53:54;4.60;99.90
25208;DHT22;13153;52.316;21.166;2023-02-01T17:56:22;4.60;99.90
25208;DHT22;13153;52.316;21.166;2023-02-01T17:58:50;4.60;99.90
25208;DHT22;13153;52.316;21.166;2023-02-01T18:01:21;4.60;99.90
25208;DHT22;13153;52.316;21.166;2023-02-01T18:03:48;4.60;99.90
25208;DHT22;13153;52.316;21.166;2023-02-01T18:06:22;4.60;99.90
25208;DHT22;13153;52.316;21.166;2023-02-01T18:08:51;4.60;99.90
25208;DHT22;13153;52.316;21.166;2023-02-01T18:11:22;4.50;99.90
25208;DHT22;13153;52.316;21.166;2023-02-01T18:13:51;4.60;99.90
25208;DHT22;13153;52.316;21.166;2023-02-01T18:16:28;4.60;99.90
25208;DHT22;13153;52.316;21.166;2023-02-01T18:18:56;4.70;99.90
25208;DHT22;13153;52.316;21.166;2023-02-01T18:21:33;4.70;99.90
25208;DHT22;13153;52.316;21.166;2023-02-01T18:24:01;4.60;99.90
25208;DHT22;13153;52.316;21.166;2023-02-01T18:26:28;4.60;99.90
25208;DHT22;13153;52.316;21.166;2023-02-01T18:28:55;4.60;99.90
25208;DHT22;13153;52.316;21.166;2023-02-01T18:31:22;4.50;99.90
25208;DHT22;13153;52.316;21.166;2023-02-01T18:33:51;4.60;99.90
25208;DHT22;13153;52.316;21.166;2023-02-01T18:36:18;4.50;99.90
25208;DHT22;13153;52.316;21.166;2023-02-01T18:38:43;4.60;99.90
25208;DHT22;13153;52.316;21.166;2023-02-01T18:41:14;4.60;99.90